createdAt,value
2019-03-13T00:00:37.751Z,996.09
2019-03-13T00:01:37.946Z,996.11
2019-03-13T00:02:37.729Z,996.04
2019-03-13T00:03:37.757Z,996.10
2019-03-13T00:04:37.795Z,996.10
2019-03-13T00:05:37.707Z,995.90
2019-03-13T00:06:37.791Z,995.83
2019-03-13T00:07:37.802Z,995.86
2019-03-13T00:08:37.793Z,995.84
2019-03-13T00:09:37.655Z,995.92
2019-03-13T00:10:37.679Z,995.71
2019-03-13T00:11:38.254Z,995.59
2019-03-13T00:12:37.634Z,995.63
2019-03-13T00:13:37.781Z,995.61
2019-03-13T00:14:37.802Z,995.58
2019-03-13T00:15:37.615Z,995.62
2019-03-13T00:16:37.616Z,995.71
2019-03-13T00:17:37.619Z,995.69
2019-03-13T00:18:37.624Z,995.71
2019-03-13T00:19:37.770Z,995.68
2019-03-13T00:20:37.615Z,995.65
2019-03-13T00:21:37.533Z,995.66
2019-03-13T00:22:37.508Z,995.57
2019-03-13T00:23:37.501Z,995.61
2019-03-13T00:24:37.498Z,995.49
2019-03-13T00:25:37.634Z,995.53
2019-03-13T00:26:37.470Z,995.52
2019-03-13T00:27:37.463Z,995.41
2019-03-13T00:28:37.454Z,995.42
2019-03-13T00:29:37.581Z,995.53
2019-03-13T00:30:37.428Z,995.33
2019-03-13T00:31:37.464Z,995.33
2019-03-13T00:32:37.437Z,995.34
2019-03-13T00:33:37.421Z,995.23
2019-03-13T00:34:37.432Z,995.36
2019-03-13T00:35:37.476Z,995.25
2019-03-13T00:36:37.479Z,995.29
2019-03-13T00:37:37.380Z,995.33
2019-03-13T00:38:37.343Z,995.39
2019-03-13T00:39:37.333Z,995.24
2019-03-13T00:40:37.321Z,995.19
2019-03-13T00:41:37.334Z,995.25
2019-03-13T00:42:37.465Z,995.01
2019-03-13T00:43:37.317Z,995.17
2019-03-13T00:44:37.282Z,995.12
2019-03-13T00:45:37.264Z,995.19
2019-03-13T00:46:37.258Z,995.12
2019-03-13T00:47:37.422Z,995.19
2019-03-13T00:48:37.242Z,995.12
2019-03-13T00:49:37.225Z,995.12
2019-03-13T00:50:37.208Z,995.15
2019-03-13T00:51:37.261Z,995.13
2019-03-13T00:52:37.192Z,995.15
2019-03-13T00:53:37.265Z,995.12
2019-03-13T00:54:37.272Z,995.14
2019-03-13T00:55:37.167Z,995.13
2019-03-13T00:56:37.148Z,995.21
2019-03-13T00:57:37.136Z,995.11
2019-03-13T00:58:37.253Z,995.09
2019-03-13T00:59:37.123Z,995.03
2019-03-13T01:00:37.114Z,995.05
2019-03-13T01:01:37.093Z,995.10
2019-03-13T01:02:37.081Z,995.00
2019-03-13T01:03:37.169Z,995.08
2019-03-13T01:04:37.083Z,995.11
2019-03-13T01:05:37.061Z,995.18
2019-03-13T01:06:37.156Z,995.12
2019-03-13T01:07:37.025Z,995.01
2019-03-13T01:08:37.021Z,994.98
2019-03-13T01:09:37.067Z,994.96
2019-03-13T01:10:36.990Z,995.13
2019-03-13T01:11:36.988Z,995.02
2019-03-13T01:12:37.098Z,995.01
2019-03-13T01:13:36.958Z,994.99
2019-03-13T01:14:36.956Z,995.01
2019-03-13T01:15:37.392Z,994.96
2019-03-13T01:16:36.925Z,994.94
2019-03-13T01:17:39.039Z,995.02
2019-03-13T01:18:37.017Z,994.88
2019-03-13T01:19:37.043Z,994.92
2019-03-13T01:20:36.892Z,994.89
2019-03-13T01:21:36.978Z,994.97
2019-03-13T01:22:36.860Z,994.85
2019-03-13T01:23:36.899Z,994.85
2019-03-13T01:24:36.840Z,994.82
2019-03-13T01:25:36.824Z,994.76
2019-03-13T01:26:36.845Z,994.82
2019-03-13T01:27:37.093Z,994.92
2019-03-13T01:28:36.801Z,994.90
2019-03-13T01:29:36.798Z,994.88
2019-03-13T01:30:36.778Z,994.88
2019-03-13T01:31:36.760Z,995.02
2019-03-13T01:32:36.760Z,995.04
2019-03-13T01:33:36.938Z,995.10
2019-03-13T01:34:36.735Z,995.09
2019-03-13T01:35:36.728Z,995.15
2019-03-13T01:36:36.702Z,995.22
2019-03-13T01:37:36.696Z,995.35
2019-03-13T01:38:36.682Z,995.22
2019-03-13T01:39:36.790Z,995.30
2019-03-13T01:40:36.681Z,995.35
2019-03-13T01:41:36.656Z,995.35
2019-03-13T01:42:37.285Z,995.47
2019-03-13T01:43:36.931Z,995.33
2019-03-13T01:44:36.752Z,995.45
2019-03-13T01:45:36.646Z,995.31
2019-03-13T01:46:36.622Z,995.30
2019-03-13T01:47:36.635Z,995.33
2019-03-13T01:48:36.575Z,995.42
2019-03-13T01:49:36.572Z,995.32
2019-03-13T01:50:36.662Z,995.27
2019-03-13T01:51:36.553Z,995.25
2019-03-13T01:52:36.537Z,995.30
2019-03-13T01:53:36.543Z,995.25
2019-03-13T01:54:36.514Z,995.33
2019-03-13T01:55:36.612Z,995.34
2019-03-13T01:56:36.485Z,995.31
2019-03-13T01:57:36.492Z,995.31
2019-03-13T01:58:36.620Z,995.38
2019-03-13T01:59:36.454Z,995.32
2019-03-13T02:00:36.502Z,995.34
2019-03-13T02:01:36.580Z,995.54
2019-03-13T02:02:36.434Z,995.49
2019-03-13T02:03:36.507Z,995.51
2019-03-13T02:04:36.399Z,995.43
2019-03-13T02:05:36.394Z,995.44
2019-03-13T02:06:36.477Z,995.45
2019-03-13T02:07:36.366Z,995.46
2019-03-13T02:08:36.359Z,995.49
2019-03-13T02:09:36.474Z,995.39
2019-03-13T02:10:36.337Z,995.44
2019-03-13T02:11:36.330Z,995.39
2019-03-13T02:12:36.315Z,995.50
2019-03-13T02:13:36.323Z,995.45
2019-03-13T02:14:36.300Z,995.47
2019-03-13T02:15:36.459Z,995.48
2019-03-13T02:16:36.276Z,995.70
2019-03-13T02:17:36.257Z,995.53
2019-03-13T02:18:36.245Z,995.60
2019-03-13T02:19:36.240Z,995.53
2019-03-13T02:20:37.812Z,995.50
2019-03-13T02:21:36.353Z,995.54
2019-03-13T02:22:36.208Z,995.53
2019-03-13T02:23:36.211Z,995.50
2019-03-13T02:24:36.180Z,995.46
2019-03-13T02:25:36.179Z,995.42
2019-03-13T02:26:36.180Z,995.47
2019-03-13T02:27:36.261Z,995.44
2019-03-13T02:28:36.154Z,995.49
2019-03-13T02:29:36.142Z,995.40
2019-03-13T02:30:36.120Z,995.43
2019-03-13T02:31:36.187Z,995.43
2019-03-13T02:32:36.210Z,995.39
2019-03-13T02:33:36.086Z,995.35
2019-03-13T02:34:36.229Z,995.38
2019-03-13T02:35:36.061Z,995.44
2019-03-13T02:36:36.068Z,995.36
2019-03-13T02:37:36.141Z,995.25
2019-03-13T02:38:36.043Z,995.44
2019-03-13T02:39:36.125Z,995.43
2019-03-13T02:40:36.012Z,995.31
2019-03-13T02:41:36.793Z,995.35
2019-03-13T02:42:35.986Z,995.36
2019-03-13T02:43:36.068Z,995.35
2019-03-13T02:44:35.966Z,995.18
2019-03-13T02:45:35.958Z,995.27
2019-03-13T02:46:35.943Z,995.25
2019-03-13T02:47:35.938Z,995.12
2019-03-13T02:48:35.921Z,995.24
2019-03-13T02:49:36.112Z,995.18
2019-03-13T02:50:35.901Z,995.13
2019-03-13T02:51:35.899Z,995.15
2019-03-13T02:52:35.891Z,994.98
2019-03-13T02:53:35.863Z,995.00
2019-03-13T02:54:35.858Z,995.00
2019-03-13T02:55:35.958Z,994.99
2019-03-13T02:56:36.005Z,994.99
2019-03-13T02:57:35.819Z,994.95
2019-03-13T02:58:35.815Z,994.96
2019-03-13T02:59:35.812Z,994.92
2019-03-13T03:00:37.700Z,995.01
2019-03-13T03:01:35.811Z,995.02
2019-03-13T03:02:36.669Z,995.04
2019-03-13T03:03:35.754Z,995.05
2019-03-13T03:04:35.904Z,995.04
2019-03-13T03:05:35.748Z,995.07
2019-03-13T03:06:35.800Z,995.09
2019-03-13T03:07:35.717Z,995.08
2019-03-13T03:08:35.935Z,995.09
2019-03-13T03:09:35.701Z,995.05
2019-03-13T03:10:35.675Z,995.09
2019-03-13T03:11:35.666Z,995.10
2019-03-13T03:12:35.786Z,995.15
2019-03-13T03:13:35.650Z,995.17
2019-03-13T03:14:35.773Z,995.17
2019-03-13T03:15:35.656Z,995.10
2019-03-13T03:16:35.612Z,995.10
2019-03-13T03:17:35.614Z,995.16
2019-03-13T03:18:35.603Z,995.20
2019-03-13T03:19:35.776Z,995.27
2019-03-13T03:20:35.606Z,995.23
2019-03-13T03:21:35.633Z,995.35
2019-03-13T03:22:35.579Z,995.37
2019-03-13T03:23:35.780Z,995.38
2019-03-13T03:24:35.529Z,995.41
2019-03-13T03:25:35.820Z,995.45
2019-03-13T03:26:35.515Z,995.42
2019-03-13T03:27:35.492Z,995.44
2019-03-13T03:28:35.483Z,995.42
2019-03-13T03:29:38.911Z,995.46
2019-03-13T03:30:35.464Z,995.49
2019-03-13T03:31:35.450Z,995.57
2019-03-13T03:32:35.448Z,995.62
2019-03-13T03:33:35.479Z,995.65
2019-03-13T03:34:35.415Z,995.68
2019-03-13T03:35:35.564Z,995.73
2019-03-13T03:36:35.405Z,995.79
2019-03-13T03:37:35.491Z,995.86
2019-03-13T03:38:35.430Z,995.93
2019-03-13T03:39:35.366Z,995.94
2019-03-13T03:40:35.386Z,995.97
2019-03-13T03:41:35.668Z,995.85
2019-03-13T03:42:35.335Z,995.94
2019-03-13T03:43:40.640Z,995.87
2019-03-13T03:44:36.489Z,996.00
2019-03-13T03:45:35.301Z,995.97
2019-03-13T03:46:35.290Z,996.04
2019-03-13T03:47:35.831Z,996.10
2019-03-13T03:48:35.269Z,996.08
2019-03-13T03:49:35.436Z,996.13
2019-03-13T03:50:35.255Z,996.15
2019-03-13T03:51:35.231Z,996.13
2019-03-13T03:52:35.222Z,996.17
2019-03-13T03:53:35.210Z,996.21
2019-03-13T03:54:35.278Z,996.24
2019-03-13T03:55:35.264Z,996.32
2019-03-13T03:56:35.184Z,996.39
2019-03-13T03:57:35.169Z,996.37
2019-03-13T03:58:35.153Z,996.41
2019-03-13T03:59:35.145Z,996.45
2019-03-13T04:00:35.253Z,996.46
2019-03-13T04:01:35.158Z,996.52
2019-03-13T04:02:35.117Z,996.52
2019-03-13T04:03:35.110Z,996.48
2019-03-13T04:04:35.089Z,996.49
2019-03-13T04:05:35.082Z,996.55
2019-03-13T04:06:35.130Z,996.53
2019-03-13T04:07:35.064Z,996.60
2019-03-13T04:08:37.808Z,996.60
2019-03-13T04:09:35.039Z,996.71
2019-03-13T04:10:35.018Z,996.61
2019-03-13T04:11:35.142Z,996.71
2019-03-13T04:12:35.075Z,996.75
2019-03-13T04:13:34.992Z,996.77
2019-03-13T04:14:35.006Z,996.79
2019-03-13T04:15:34.978Z,996.81
2019-03-13T04:16:34.955Z,996.86
2019-03-13T04:17:35.042Z,996.90
2019-03-13T04:18:34.932Z,996.95
2019-03-13T04:19:34.921Z,996.93
2019-03-13T04:20:34.914Z,996.99
2019-03-13T04:21:34.914Z,997.02
2019-03-13T04:22:34.910Z,997.06
2019-03-13T04:23:35.008Z,997.04
2019-03-13T04:24:34.912Z,997.06
2019-03-13T04:25:34.867Z,997.13
2019-03-13T04:26:34.856Z,997.13
2019-03-13T04:27:34.847Z,997.22
2019-03-13T04:28:35.005Z,997.29
2019-03-13T04:29:35.082Z,997.31
2019-03-13T04:30:34.798Z,997.33
2019-03-13T04:31:34.796Z,997.26
2019-03-13T04:32:34.775Z,997.23
2019-03-13T04:33:34.774Z,997.25
2019-03-13T04:34:34.923Z,997.23
2019-03-13T04:35:34.746Z,997.31
2019-03-13T04:36:34.740Z,997.35
2019-03-13T04:37:34.764Z,997.34
2019-03-13T04:38:34.714Z,997.41
2019-03-13T04:39:34.811Z,997.38
2019-03-13T04:40:34.703Z,997.36
2019-03-13T04:41:34.686Z,997.40
2019-03-13T04:42:34.666Z,997.46
2019-03-13T04:43:34.661Z,997.44
2019-03-13T04:44:34.675Z,997.41
2019-03-13T04:45:34.712Z,997.49
2019-03-13T04:46:34.643Z,997.47
2019-03-13T04:47:34.624Z,997.48
2019-03-13T04:48:34.602Z,997.51
2019-03-13T04:49:34.592Z,997.54
2019-03-13T04:50:34.587Z,997.63
2019-03-13T04:51:34.669Z,997.66
2019-03-13T04:52:34.572Z,997.67
2019-03-13T04:53:34.545Z,997.57
2019-03-13T04:54:34.537Z,997.74
2019-03-13T04:55:34.531Z,997.67
2019-03-13T04:56:34.637Z,997.65
2019-03-13T04:57:34.575Z,997.74
2019-03-13T04:58:34.500Z,997.73
2019-03-13T04:59:34.481Z,997.80
2019-03-13T05:00:34.487Z,997.80
2019-03-13T05:01:34.532Z,997.79
2019-03-13T05:02:34.553Z,997.82
2019-03-13T05:03:34.445Z,997.81
2019-03-13T05:04:34.428Z,997.86
2019-03-13T05:05:34.419Z,997.81
2019-03-13T05:06:34.405Z,997.80
2019-03-13T05:07:34.401Z,997.80
2019-03-13T05:08:44.577Z,997.88
2019-03-13T05:09:35.455Z,997.86
2019-03-13T05:10:34.369Z,997.84
2019-03-13T05:11:34.351Z,997.94
2019-03-13T05:12:34.343Z,998.03
2019-03-13T05:13:34.349Z,997.88
2019-03-13T05:14:34.339Z,997.96
2019-03-13T05:15:34.488Z,997.95
2019-03-13T05:16:34.305Z,997.95
2019-03-13T05:17:34.283Z,997.99
2019-03-13T05:18:34.356Z,997.95
2019-03-13T05:19:34.266Z,998.07
2019-03-13T05:20:34.533Z,998.08
2019-03-13T05:21:34.242Z,998.01
2019-03-13T05:22:34.266Z,998.05
2019-03-13T05:23:34.246Z,998.14
2019-03-13T05:24:34.219Z,998.10
2019-03-13T05:25:34.286Z,998.08
2019-03-13T05:26:34.278Z,998.09
2019-03-13T05:27:34.204Z,998.11
2019-03-13T05:28:34.169Z,998.14
2019-03-13T05:29:34.161Z,998.10
2019-03-13T05:30:34.144Z,998.16
2019-03-13T05:31:34.267Z,998.21
2019-03-13T05:32:34.130Z,998.26
2019-03-13T05:33:34.329Z,998.25
2019-03-13T05:34:34.099Z,998.26
2019-03-13T05:35:34.168Z,998.25
2019-03-13T05:36:34.106Z,998.35
2019-03-13T05:37:34.375Z,998.34
2019-03-13T05:38:34.161Z,998.35
2019-03-13T05:39:34.045Z,998.33
2019-03-13T05:40:34.032Z,998.39
2019-03-13T05:41:34.036Z,998.42
2019-03-13T05:42:34.010Z,998.42
2019-03-13T05:43:34.129Z,998.44
2019-03-13T05:44:33.993Z,998.50
2019-03-13T05:45:33.995Z,998.45
2019-03-13T05:46:34.071Z,998.46
2019-03-13T05:47:33.960Z,998.50
2019-03-13T05:48:33.962Z,998.54
2019-03-13T05:49:33.946Z,998.50
2019-03-13T05:50:33.931Z,998.52
2019-03-13T05:51:34.020Z,998.54
2019-03-13T05:52:33.902Z,998.53
2019-03-13T05:53:33.897Z,998.55
2019-03-13T05:54:33.896Z,998.59
2019-03-13T05:55:33.885Z,998.61
2019-03-13T05:56:33.863Z,998.63
2019-03-13T05:57:33.971Z,998.62
2019-03-13T05:58:33.867Z,998.53
2019-03-13T05:59:33.847Z,998.54
2019-03-13T06:00:33.822Z,998.51
2019-03-13T06:01:33.925Z,998.53
2019-03-13T06:02:34.007Z,998.58
2019-03-13T06:03:33.995Z,998.52
2019-03-13T06:04:33.860Z,998.59
2019-03-13T06:05:33.789Z,998.57
2019-03-13T06:06:33.997Z,998.59
2019-03-13T06:07:33.823Z,998.67
2019-03-13T06:08:33.732Z,998.64
2019-03-13T06:09:33.982Z,998.67
2019-03-13T06:10:33.844Z,998.69
2019-03-13T06:11:33.711Z,998.71
2019-03-13T06:12:33.704Z,998.76
2019-03-13T06:13:33.686Z,998.73
2019-03-13T06:14:33.866Z,998.79
2019-03-13T06:15:33.655Z,998.78
2019-03-13T06:16:33.826Z,998.77
2019-03-13T06:17:33.640Z,998.82
2019-03-13T06:18:33.637Z,998.83
2019-03-13T06:19:33.617Z,998.85
2019-03-13T06:20:33.612Z,998.85
2019-03-13T06:21:33.682Z,998.85
2019-03-13T06:22:33.610Z,998.90
2019-03-13T06:23:33.630Z,998.86
2019-03-13T06:24:33.698Z,998.93
2019-03-13T06:25:33.597Z,998.92
2019-03-13T06:26:33.625Z,998.95
2019-03-13T06:27:33.685Z,998.97
2019-03-13T06:28:33.523Z,998.98
2019-03-13T06:29:33.511Z,998.94
2019-03-13T06:30:33.509Z,999.04
2019-03-13T06:31:33.505Z,999.00
2019-03-13T06:32:33.517Z,999.04
2019-03-13T06:33:33.612Z,999.13
2019-03-13T06:34:33.449Z,998.99
2019-03-13T06:35:33.495Z,999.03
2019-03-13T06:36:33.439Z,999.05
2019-03-13T06:37:33.410Z,999.05
2019-03-13T06:38:33.397Z,999.08
2019-03-13T06:39:33.505Z,999.03
2019-03-13T06:40:33.388Z,999.09
2019-03-13T06:41:33.431Z,999.08
2019-03-13T06:42:33.361Z,999.09
2019-03-13T06:43:33.754Z,999.14
2019-03-13T06:44:33.332Z,999.12
2019-03-13T06:45:33.327Z,999.13
2019-03-13T06:46:33.324Z,999.14
2019-03-13T06:47:33.332Z,999.21
2019-03-13T06:48:33.338Z,999.15
2019-03-13T06:49:33.512Z,999.27
2019-03-13T06:50:33.443Z,999.21
2019-03-13T06:51:33.282Z,999.15
2019-03-13T06:52:33.335Z,999.19
2019-03-13T06:53:33.247Z,999.23
2019-03-13T06:54:33.228Z,999.21
2019-03-13T06:55:33.312Z,999.30
2019-03-13T06:56:33.347Z,999.28
2019-03-13T06:57:33.214Z,999.28
2019-03-13T06:58:33.255Z,999.28
2019-03-13T06:59:33.191Z,999.32
2019-03-13T07:00:33.369Z,999.32
2019-03-13T07:01:33.242Z,999.32
2019-03-13T07:02:33.324Z,999.30
2019-03-13T07:03:33.139Z,999.32
2019-03-13T07:04:33.130Z,999.33
2019-03-13T07:05:33.106Z,999.29
2019-03-13T07:06:33.135Z,999.36
2019-03-13T07:07:33.166Z,999.33
2019-03-13T07:08:33.115Z,999.34
2019-03-13T07:09:33.067Z,999.41
2019-03-13T07:10:33.064Z,999.30
2019-03-13T07:11:33.071Z,999.28
2019-03-13T07:12:33.122Z,999.44
2019-03-13T07:13:33.400Z,999.39
2019-03-13T07:14:33.086Z,999.50
2019-03-13T07:15:35.761Z,999.38
2019-03-13T07:16:32.995Z,999.47
2019-03-13T07:17:33.017Z,999.18
2019-03-13T07:18:33.005Z,999.27
2019-03-13T07:19:33.046Z,999.28
2019-03-13T07:20:32.945Z,999.29
2019-03-13T07:21:32.988Z,999.44
2019-03-13T07:22:32.935Z,999.38
2019-03-13T07:23:32.906Z,999.35
2019-03-13T07:24:33.051Z,999.19
2019-03-13T07:25:32.884Z,999.20
2019-03-13T07:26:32.885Z,999.23
2019-03-13T07:27:33.070Z,999.30
2019-03-13T07:28:32.865Z,999.29
2019-03-13T07:29:32.844Z,999.27
2019-03-13T07:30:32.919Z,999.22
2019-03-13T07:31:33.029Z,999.31
2019-03-13T07:32:33.161Z,999.32
2019-03-13T07:33:32.809Z,999.32
2019-03-13T07:34:32.862Z,999.25
2019-03-13T07:35:32.776Z,999.27
2019-03-13T07:36:32.775Z,999.29
2019-03-13T07:37:32.767Z,999.28
2019-03-13T07:38:32.858Z,999.33
2019-03-13T07:39:32.755Z,999.31
2019-03-13T07:40:32.724Z,999.38
2019-03-13T07:41:35.489Z,999.32
2019-03-13T07:42:32.761Z,999.29
2019-03-13T07:43:32.792Z,999.33
2019-03-13T07:44:32.674Z,999.30
2019-03-13T07:45:32.679Z,999.41
2019-03-13T07:46:32.700Z,999.30
2019-03-13T07:47:32.868Z,999.45
2019-03-13T07:48:32.638Z,999.34
2019-03-13T07:49:32.877Z,999.33
2019-03-13T07:50:32.634Z,999.27
2019-03-13T07:51:32.622Z,999.37
2019-03-13T07:52:33.076Z,999.41
2019-03-13T07:53:32.603Z,999.48
2019-03-13T07:54:32.701Z,999.21
2019-03-13T07:55:32.568Z,999.22
2019-03-13T07:56:32.666Z,999.25
2019-03-13T07:57:32.542Z,999.26
2019-03-13T07:58:32.541Z,999.20
2019-03-13T07:59:32.632Z,999.23
2019-03-13T08:00:32.504Z,999.26
2019-03-13T08:01:32.489Z,999.30
2019-03-13T08:02:32.492Z,999.31
2019-03-13T08:03:32.464Z,999.24
2019-03-13T08:04:33.735Z,999.27
2019-03-13T08:05:32.563Z,999.57
2019-03-13T08:06:32.454Z,999.24
2019-03-13T08:07:32.428Z,999.20
2019-03-13T08:08:32.430Z,999.43
2019-03-13T08:09:32.405Z,999.39
2019-03-13T08:10:32.397Z,999.39
2019-03-13T08:11:32.603Z,999.41
2019-03-13T08:12:32.370Z,999.26
2019-03-13T08:13:32.375Z,999.29
2019-03-13T08:14:32.365Z,999.35
2019-03-13T08:15:32.341Z,999.33
2019-03-13T08:16:32.330Z,999.32
2019-03-13T08:17:32.549Z,999.32
2019-03-13T08:18:46.888Z,999.28
2019-03-13T08:19:32.373Z,999.27
2019-03-13T08:20:32.296Z,999.23
2019-03-13T08:21:32.435Z,999.09
2019-03-13T08:22:32.266Z,999.21
2019-03-13T08:23:32.269Z,999.30
2019-03-13T08:24:32.233Z,999.28
2019-03-13T08:25:33.148Z,999.28
2019-03-13T08:26:32.219Z,999.38
2019-03-13T08:27:32.320Z,999.19
2019-03-13T08:28:32.224Z,999.04
2019-03-13T08:29:32.215Z,999.08
2019-03-13T08:30:32.171Z,999.04
2019-03-13T08:31:32.166Z,999.11
2019-03-13T08:32:32.166Z,999.07
2019-03-13T08:33:32.245Z,999.35
2019-03-13T08:34:32.131Z,999.24
2019-03-13T08:35:32.232Z,999.10
2019-03-13T08:36:32.163Z,999.30
2019-03-13T08:37:32.103Z,999.40
2019-03-13T08:38:32.084Z,999.31
2019-03-13T08:39:32.084Z,999.00
2019-03-13T08:40:32.062Z,999.01
2019-03-13T08:41:32.149Z,999.35
2019-03-13T08:42:32.050Z,999.34
2019-03-13T08:43:32.031Z,999.09
2019-03-13T08:44:32.040Z,999.12
2019-03-13T08:45:32.007Z,998.97
2019-03-13T08:46:32.739Z,998.93
2019-03-13T08:47:32.081Z,999.05
2019-03-13T08:48:31.984Z,999.05
2019-03-13T08:49:31.978Z,999.05
2019-03-13T08:50:31.958Z,999.12
2019-03-13T08:51:31.946Z,998.98
2019-03-13T08:52:31.973Z,999.00
2019-03-13T08:53:32.192Z,999.32
2019-03-13T08:54:31.922Z,998.99
2019-03-13T08:55:31.926Z,999.08
2019-03-13T08:56:32.162Z,999.16
2019-03-13T08:57:31.884Z,999.07
2019-03-13T08:58:31.864Z,998.99
2019-03-13T08:59:31.870Z,998.82
2019-03-13T09:00:31.852Z,998.94
2019-03-13T09:01:31.833Z,999.21
2019-03-13T09:02:32.007Z,999.13
2019-03-13T09:03:31.811Z,999.17
2019-03-13T09:04:31.809Z,999.06
2019-03-13T09:05:31.813Z,998.97
2019-03-13T09:06:31.804Z,998.87
2019-03-13T09:07:32.219Z,999.03
2019-03-13T09:08:31.915Z,998.91
2019-03-13T09:09:31.741Z,999.11
2019-03-13T09:10:31.833Z,998.84
2019-03-13T09:11:31.724Z,999.01
2019-03-13T09:12:31.738Z,999.02
2019-03-13T09:13:31.703Z,999.08
2019-03-13T09:14:31.895Z,998.98
2019-03-13T09:15:31.702Z,999.13
2019-03-13T09:16:31.680Z,998.97
2019-03-13T09:17:31.672Z,999.20
2019-03-13T09:18:31.661Z,998.82
2019-03-13T09:19:31.849Z,998.91
2019-03-13T09:20:31.641Z,999.07
2019-03-13T09:21:33.601Z,999.03
2019-03-13T09:22:31.662Z,998.63
2019-03-13T09:23:31.639Z,998.76
2019-03-13T09:24:31.628Z,998.62
2019-03-13T09:25:31.670Z,998.65
2019-03-13T09:26:31.551Z,998.70
2019-03-13T09:27:31.876Z,998.83
2019-03-13T09:28:31.547Z,998.77
2019-03-13T09:29:31.682Z,998.81
2019-03-13T09:30:31.509Z,998.94
2019-03-13T09:31:31.502Z,998.64
2019-03-13T09:32:31.516Z,998.77
2019-03-13T09:33:31.663Z,998.56
2019-03-13T09:34:31.480Z,998.57
2019-03-13T09:35:31.493Z,998.96
2019-03-13T09:36:31.453Z,998.85
2019-03-13T09:37:31.435Z,998.79
2019-03-13T09:38:31.432Z,998.59
2019-03-13T09:39:31.551Z,998.67
2019-03-13T09:40:31.425Z,998.56
2019-03-13T09:41:31.409Z,998.63
2019-03-13T09:42:31.437Z,998.74
2019-03-13T09:43:31.379Z,998.70
2019-03-13T09:44:31.700Z,998.52
2019-03-13T09:45:31.353Z,998.58
2019-03-13T09:46:31.342Z,998.44
2019-03-13T09:47:31.323Z,998.83
2019-03-13T09:48:31.309Z,998.77
2019-03-13T09:49:31.313Z,998.52
2019-03-13T09:50:31.412Z,998.55
2019-03-13T09:51:31.320Z,998.52
2019-03-13T09:52:31.276Z,998.53
2019-03-13T09:53:31.253Z,998.52
2019-03-13T09:54:31.250Z,998.53
2019-03-13T09:55:31.356Z,998.62
2019-03-13T09:56:31.223Z,998.58
2019-03-13T09:57:31.226Z,998.57
2019-03-13T09:58:31.317Z,998.61
2019-03-13T09:59:42.815Z,998.59
2019-03-13T10:00:32.309Z,998.45
2019-03-13T10:01:31.366Z,998.55
2019-03-13T10:02:31.197Z,998.61
2019-03-13T10:03:31.155Z,998.49
2019-03-13T10:04:31.161Z,998.54
2019-03-13T10:05:31.120Z,998.58
2019-03-13T10:06:31.115Z,998.47
2019-03-13T10:07:31.197Z,998.61
2019-03-13T10:08:31.096Z,998.53
2019-03-13T10:09:31.101Z,998.45
2019-03-13T10:10:31.070Z,998.45
2019-03-13T10:11:31.064Z,998.35
2019-03-13T10:12:31.178Z,998.55
2019-03-13T10:13:31.054Z,998.48
2019-03-13T10:14:31.040Z,998.45
2019-03-13T10:15:31.035Z,998.51
2019-03-13T10:16:31.083Z,998.55
2019-03-13T10:17:30.995Z,998.64
2019-03-13T10:18:31.182Z,998.50
2019-03-13T10:19:31.034Z,998.43
2019-03-13T10:20:30.973Z,998.69
2019-03-13T10:21:30.962Z,998.31
2019-03-13T10:22:30.942Z,998.35
2019-03-13T10:23:30.926Z,998.52
2019-03-13T10:24:31.106Z,998.52
2019-03-13T10:25:30.921Z,998.22
2019-03-13T10:26:30.900Z,998.32
2019-03-13T10:27:30.901Z,998.16
2019-03-13T10:28:30.868Z,998.18
2019-03-13T10:29:30.868Z,998.23
2019-03-13T10:30:31.037Z,998.25
2019-03-13T10:31:30.868Z,998.12
2019-03-13T10:32:30.842Z,998.16
2019-03-13T10:33:30.833Z,998.09
2019-03-13T10:34:30.802Z,998.18
2019-03-13T10:35:30.819Z,998.07
2019-03-13T10:36:30.876Z,998.08
2019-03-13T10:37:30.800Z,998.06
2019-03-13T10:38:30.769Z,998.20
2019-03-13T10:39:30.747Z,998.13
2019-03-13T10:40:30.878Z,998.12
2019-03-13T10:41:30.736Z,998.09
2019-03-13T10:42:30.722Z,998.09
2019-03-13T10:43:30.712Z,998.07
2019-03-13T10:44:30.709Z,998.21
2019-03-13T10:45:30.784Z,998.30
2019-03-13T10:46:30.701Z,997.99
2019-03-13T10:47:30.662Z,998.66
2019-03-13T10:48:30.709Z,998.09
2019-03-13T10:49:30.645Z,998.13
2019-03-13T10:50:30.809Z,997.99
2019-03-13T10:51:30.635Z,997.87
2019-03-13T10:52:30.613Z,998.38
2019-03-13T10:53:30.598Z,998.15
2019-03-13T10:54:30.588Z,998.44
2019-03-13T10:55:30.758Z,998.23
2019-03-13T10:56:30.690Z,998.09
2019-03-13T10:57:30.668Z,998.26
2019-03-13T10:58:30.561Z,998.31
2019-03-13T10:59:30.537Z,998.13
2019-03-13T11:00:30.515Z,998.26
2019-03-13T11:01:30.567Z,998.25
2019-03-13T11:02:30.504Z,998.15
2019-03-13T11:03:30.630Z,998.25
2019-03-13T11:04:30.477Z,998.25
2019-03-13T11:05:30.517Z,997.84
2019-03-13T11:06:30.452Z,998.18
2019-03-13T11:07:30.463Z,998.13
2019-03-13T11:08:30.425Z,998.18
2019-03-13T11:09:30.776Z,998.17
2019-03-13T11:10:30.419Z,998.08
2019-03-13T11:11:30.396Z,998.15
2019-03-13T11:12:30.391Z,997.80
2019-03-13T11:13:30.598Z,997.96
2019-03-13T11:14:30.391Z,997.83
2019-03-13T11:15:30.358Z,997.97
2019-03-13T11:16:30.345Z,997.76
2019-03-13T11:17:30.330Z,997.82
2019-03-13T11:18:30.329Z,998.00
2019-03-13T11:19:30.455Z,997.85
2019-03-13T11:20:30.348Z,998.06
2019-03-13T11:21:30.294Z,998.15
2019-03-13T11:22:30.348Z,997.71
2019-03-13T11:23:35.148Z,997.95
2019-03-13T11:24:30.263Z,997.56
2019-03-13T11:25:30.370Z,997.99
2019-03-13T11:26:30.254Z,997.84
2019-03-13T11:27:30.248Z,997.60
2019-03-13T11:28:30.245Z,998.02
2019-03-13T11:29:30.231Z,997.99
2019-03-13T11:30:30.199Z,997.65
2019-03-13T11:31:30.310Z,997.70
2019-03-13T11:32:30.185Z,997.80
2019-03-13T11:33:30.161Z,997.83
2019-03-13T11:34:30.145Z,997.84
2019-03-13T11:35:30.139Z,997.63
2019-03-13T11:36:30.156Z,997.75
2019-03-13T11:37:30.220Z,997.64
2019-03-13T11:38:30.110Z,997.57
2019-03-13T11:39:30.177Z,997.66
2019-03-13T11:40:30.077Z,997.87
2019-03-13T11:41:30.093Z,997.68
2019-03-13T11:42:30.172Z,997.56
2019-03-13T11:43:30.057Z,997.65
2019-03-13T11:44:30.036Z,997.67
2019-03-13T11:45:30.183Z,997.66
2019-03-13T11:46:30.015Z,997.67
2019-03-13T11:47:41.709Z,997.64
2019-03-13T11:48:30.989Z,997.69
2019-03-13T11:49:30.061Z,997.63
2019-03-13T11:50:32.469Z,997.64
2019-03-13T11:51:30.062Z,997.63
2019-03-13T11:52:29.948Z,997.61
2019-03-13T11:53:29.940Z,997.63
2019-03-13T11:54:29.957Z,997.55
2019-03-13T11:55:29.914Z,998.16
2019-03-13T11:56:29.900Z,997.91
2019-03-13T11:57:30.112Z,997.77
2019-03-13T11:58:29.892Z,997.81
2019-03-13T11:59:29.876Z,997.86
2019-03-13T12:00:29.862Z,997.81
2019-03-13T12:01:29.844Z,997.72
2019-03-13T12:02:29.834Z,997.86
2019-03-13T12:03:29.928Z,997.71
2019-03-13T12:04:29.813Z,997.77
2019-03-13T12:05:29.802Z,997.72
2019-03-13T12:06:29.880Z,997.67
2019-03-13T12:07:29.913Z,997.72
2019-03-13T12:08:29.783Z,997.76
2019-03-13T12:09:29.929Z,997.78
2019-03-13T12:10:29.751Z,997.66
2019-03-13T12:11:29.789Z,997.82
2019-03-13T12:12:29.722Z,997.72
2019-03-13T12:13:29.771Z,997.75
2019-03-13T12:14:29.715Z,997.78
2019-03-13T12:15:29.970Z,997.77
2019-03-13T12:16:29.705Z,997.71
2019-03-13T12:17:29.757Z,997.71
2019-03-13T12:18:29.702Z,997.80
2019-03-13T12:19:29.889Z,997.86
2019-03-13T12:20:29.716Z,997.85
2019-03-13T12:21:29.684Z,997.82
2019-03-13T12:22:29.724Z,997.83
2019-03-13T12:23:29.605Z,997.80
2019-03-13T12:24:29.791Z,997.77
2019-03-13T12:25:29.598Z,997.71
2019-03-13T12:26:29.625Z,997.87
2019-03-13T12:27:29.653Z,997.71
2019-03-13T12:28:29.629Z,997.78